Time;durP1;ratioP1;P1;durP2;ratioP2;P2;SDS_P1;SDS_P2;PMS_P1;PMS_P2;Temp;Humidity;BMP_temperature;BMP_pressure;BME280_temperature;BME280_humidity;BME280_pressure;Samples;Min_cycle;Max_cycle;Signal;HPM_P1;HPM_P2
2021/08/02 00:01:09;;;;;;;7.40;3.35;;;;;;;26.60;63.36;99904.47;5113495;28;20023;-83
2021/08/02 00:04:09;;;;;;;10.65;5.00;;;;;;;26.59;61.88;99908.63;5113439;28;20084;-83
2021/08/02 00:06:49;;;;;;;6.15;3.40;;;;;;;26.54;64.69;99909.25;5095648;28;20036;-83
2021/08/02 00:09:30;;;;;;;13.13;3.97;;;;;;;26.45;62.41;99911.34;5114088;28;20523;-83
2021/08/02 00:12:03;;;;;;;7.38;3.75;;;;;;;26.34;61.36;99909.75;5113922;28;20039;-83
2021/08/02 00:14:32;;;;;;;5.78;2.83;;;;;;;26.47;60.41;99906.72;5113337;28;20035;-82
2021/08/02 00:16:58;;;;;;;6.15;3.05;;;;;;;26.37;60.26;99911.66;5130142;27;20024;-83
2021/08/02 00:19:27;;;;;;;7.57;3.15;;;;;;;26.37;61.23;99919.41;5130914;27;20348;-83
2021/08/02 00:21:53;;;;;;;13.88;3.50;;;;;;;26.11;61.78;99916.13;5113872;27;20027;-82
2021/08/02 00:24:20;;;;;;;5.68;2.80;;;;;;;25.99;62.43;99919.91;5113484;28;20087;-82
2021/08/02 00:26:49;;;;;;;5.65;2.92;;;;;;;26.01;62.16;99918.19;5114016;28;20043;-82
2021/08/02 00:29:19;;;;;;;8.63;2.72;;;;;;;26.15;61.66;99916.72;5112932;28;20092;-82
2021/08/02 00:31:49;;;;;;;9.10;2.60;;;;;;;26.11;61.62;99913.28;5130098;27;20168;-83
2021/08/02 00:34:17;;;;;;;8.23;3.10;;;;;;;26.05;62.09;99915.97;5113336;28;20489;-83
2021/08/02 00:36:53;;;;;;;7.22;2.83;;;;;;;26.18;61.71;99909.28;5113205;28;20474;-82
2021/08/02 00:39:45;;;;;;;6.13;2.38;;;;;;;26.09;63.01;99908.03;5112924;28;20058;-82
2021/08/02 00:42:35;;;;;;;4.75;2.85;;;;;;;26.11;63.38;99911.22;5129950;27;20063;-83
2021/08/02 00:45:20;;;;;;;7.97;4.13;;;;;;;26.07;63.26;99916.28;5112759;28;20028;-82
2021/08/02 00:48:06;;;;;;;5.75;2.72;;;;;;;26.01;63.70;99909.63;5113126;28;20028;-80
2021/08/02 00:50:37;;;;;;;6.53;3.67;;;;;;;26.04;63.46;99897.25;5114200;28;20027;-81
2021/08/02 00:53:29;;;;;;;7.55;3.38;;;;;;;26.10;63.64;99901.06;5130550;27;20396;-80
2021/08/02 00:56:03;;;;;;;11.43;2.90;;;;;;;26.14;62.63;99903.75;5107524;28;20042;-82
2021/08/02 00:58:36;;;;;;;6.93;2.78;;;;;;;26.09;62.57;99904.38;5113157;28;20042;-81
2021/08/02 01:01:05;;;;;;;4.57;2.63;;;;;;;26.11;63.03;99902.66;5113023;28;20046;-81
2021/08/02 01:03:31;;;;;;;6.20;3.03;;;;;;;26.16;62.68;99909.78;5112597;28;20028;-84
2021/08/02 01:06:17;;;;;;;7.60;2.55;;;;;;;26.17;62.52;99910.56;5112470;28;20047;-82
2021/08/02 01:08:50;;;;;;;7.30;3.30;;;;;;;26.21;62.74;99906.28;5113210;28;20382;-82
2021/08/02 01:11:16;;;;;;;6.30;2.53;;;;;;;26.17;63.18;99905.66;5112478;28;20039;-82
2021/08/02 01:13:44;;;;;;;5.10;2.88;;;;;;;26.20;62.30;99901.03;5129655;28;20031;-82
2021/08/02 01:16:13;;;;;;;5.18;2.55;;;;;;;26.16;62.66;99906.13;5113190;28;20030;-82
2021/08/02 01:18:45;;;;;;;5.72;2.65;;;;;;;26.15;62.42;99902.47;5112150;28;20062;-82
2021/08/02 01:21:13;;;;;;;10.40;3.05;;;;;;;26.16;62.59;99901.22;5112356;28;20027;-82
2021/08/02 01:23:39;;;;;;;7.43;2.38;;;;;;;26.12;63.34;99907.09;5112598;28;20027;-81
2021/08/02 01:26:42;;;;;;;5.95;2.60;;;;;;;26.11;62.79;99914.06;5112622;28;20191;-81
2021/08/02 01:29:45;;;;;;;5.97;2.80;;;;;;;26.10;63.16;99906.78;5112968;28;20027;-83
2021/08/02 01:32:18;;;;;;;9.23;3.13;;;;;;;26.12;62.73;99909.94;5112222;28;20478;-82
2021/08/02 01:34:46;;;;;;;6.78;3.08;;;;;;;26.18;62.46;99912.94;5129409;28;20032;-82
2021/08/02 01:37:15;;;;;;;7.18;2.97;;;;;;;26.12;62.58;99909.94;5129361;28;20050;-82
2021/08/02 01:39:45;;;;;;;8.43;2.75;;;;;;;26.12;62.23;99909.16;5112204;28;20030;-82
2021/08/02 01:42:14;;;;;;;4.78;2.45;;;;;;;26.10;62.49;99901.06;5112112;28;20043;-82
2021/08/02 01:44:45;;;;;;;4.93;2.88;;;;;;;26.06;62.00;99911.84;5112649;28;20031;-81
2021/08/02 01:47:31;;;;;;;7.65;3.60;;;;;;;25.71;63.31;99913.38;5112391;28;20058;-82
2021/08/02 01:50:22;;;;;;;6.65;3.20;;;;;;;25.57;63.26;99915.59;5094440;28;20057;-82
2021/08/02 01:53:05;;;;;;;5.88;3.40;;;;;;;25.45;63.97;99919.34;5112579;28;20127;-83
2021/08/02 01:55:32;;;;;;;7.47;3.20;;;;;;;25.39;63.76;99909.84;5112827;28;20077;-84
2021/08/02 01:58:09;;;;;;;5.53;2.90;;;;;;;25.06;64.39;99904.72;5129217;28;20034;-82
2021/08/02 02:00:42;;;;;;;4.80;2.80;;;;;;;24.97;65.13;99896.09;5113320;28;20424;-83
2021/08/02 02:03:20;;;;;;;;;;;;;;;24.92;65.05;99898.78;5115313;28;20028;-82
2021/08/02 02:05:53;;;;;;;3.75;2.65;;;;;;;24.97;64.78;99901.78;5115837;28;19912;-82
2021/08/02 02:08:28;;;;;;;4.45;2.53;;;;;;;25.03;64.81;99905.59;5116078;28;20039;-82
2021/08/02 02:11:00;;;;;;;5.95;2.50;;;;;;;25.10;64.26;99918.03;5116245;28;20120;-83
2021/08/02 02:13:35;;;;;;;6.30;2.70;;;;;;;25.11;63.73;99930.97;5116601;27;20126;-84
2021/08/02 02:16:05;;;;;;;3.75;2.33;;;;;;;25.25;62.86;99931.19;5132811;27;20059;-84
2021/08/02 02:18:37;;;;;;;7.28;3.20;;;;;;;25.25;62.99;99928.34;5115131;28;20075;-82
2021/08/02 02:21:09;;;;;;;6.70;2.85;;;;;;;25.14;62.72;99921.50;5116256;27;20020;-82
2021/08/02 02:23:40;;;;;;;7.10;2.15;;;;;;;25.16;63.34;99930.38;5115164;28;20043;-80
2021/08/02 02:26:09;;;;;;;5.53;2.67;;;;;;;25.14;63.52;99932.88;5115322;28;20028;-82
2021/08/02 02:28:34;;;;;;;6.20;2.85;;;;;;;25.08;62.89;99927.78;5114889;28;20040;-81
2021/08/02 02:31:07;;;;;;;6.43;2.83;;;;;;;24.89;63.02;99900.50;5115749;28;20036;-82
2021/08/02 02:33:35;;;;;;;4.70;2.50;;;;;;;25.08;62.95;99919.25;5115486;28;20056;-81
2021/08/02 02:36:04;;;;;;;4.75;2.45;;;;;;;25.08;62.98;99936.34;5115121;28;20319;-82
2021/08/02 02:38:31;;;;;;;9.90;6.25;;;;;;;25.20;62.68;99933.88;5115372;28;20042;-81
2021/08/02 02:40:59;;;;;;;12.25;9.45;;;;;;;25.21;62.27;99932.59;5115043;28;20122;-81
2021/08/02 02:43:29;;;;;;;9.82;8.02;;;;;;;25.17;62.25;99943.34;5114927;28;20466;-80
2021/08/02 02:46:01;;;;;;;11.55;7.22;;;;;;;25.16;61.72;99948.25;5115001;28;20485;-81
2021/08/02 02:48:30;;;;;;;6.80;5.78;;;;;;;25.21;60.56;99941.16;5114809;28;20026;-82
2021/08/02 02:50:57;;;;;;;5.45;4.10;;;;;;;25.18;59.64;99940.00;5115408;28;20470;-82
2021/08/02 02:53:24;;;;;;;5.50;2.90;;;;;;;25.16;59.27;99948.25;5132203;27;20023;-81
2021/08/02 02:55:50;;;;;;;5.53;2.50;;;;;;;25.17;59.42;99937.66;5114761;28;20471;-81
2021/08/02 02:58:18;;;;;;;3.45;2.60;;;;;;;25.12;59.72;99961.03;5114730;28;20027;-83
2021/08/02 03:00:46;;;;;;;6.57;3.25;;;;;;;25.12;59.75;99963.88;5132324;27;20122;-81
2021/08/02 03:03:19;;;;;;;5.80;4.63;;;;;;;25.15;59.22;99960.91;5114634;28;20028;-82
2021/08/02 03:05:44;;;;;;;;;;;;;;;25.14;58.85;99973.53;5132095;27;20032;-82
2021/08/02 03:08:17;;;;;;;7.15;5.57;;;;;;;25.19;58.50;99969.28;5115134;28;19926;-84
2021/08/02 03:10:51;;;;;;;4.18;2.67;;;;;;;25.13;58.47;99962.59;5111357;28;20035;-83
2021/08/02 03:13:20;;;;;;;3.53;2.17;;;;;;;25.10;59.30;99967.19;5114241;28;20111;-82
2021/08/02 03:15:48;;;;;;;2.80;2.30;;;;;;;25.05;59.28;99971.41;5115008;28;20119;-83
2021/08/02 03:18:19;;;;;;;3.33;3.03;;;;;;;25.03;59.38;99971.06;5114100;28;20128;-83
2021/08/02 03:20:48;;;;;;;6.60;3.08;;;;;;;25.04;59.93;99971.88;5114695;28;20148;-82
2021/08/02 03:23:24;;;;;;;6.05;2.70;;;;;;;25.07;59.50;99970.97;5114281;28;20092;-82
2021/08/02 03:26:09;;;;;;;5.95;2.63;;;;;;;25.00;59.68;99974.06;5097579;28;20096;-82
2021/08/02 03:28:46;;;;;;;4.53;2.80;;;;;;;24.93;59.74;99980.84;5114145;28;20035;-82
2021/08/02 03:31:28;;;;;;;4.95;3.25;;;;;;;24.96;60.21;99971.38;5114110;28;20024;-80
2021/08/02 03:33:55;;;;;;;5.32;3.10;;;;;;;24.90;59.15;99969.59;5115739;28;20378;-83
2021/08/02 03:36:26;;;;;;;6.78;5.07;;;;;;;24.88;59.22;99972.91;5114167;28;20026;-83
2021/08/02 03:38:59;;;;;;;15.20;10.60;;;;;;;24.92;59.83;99984.94;5113891;28;20420;-83
2021/08/02 03:41:28;;;;;;;24.48;21.88;;;;;;;25.01;58.43;99976.44;5114464;28;20463;-83
2021/08/02 03:44:01;;;;;;;22.17;15.65;;;;;;;24.93;59.03;99980.03;5113841;28;20139;-83
2021/08/02 03:46:27;;;;;;;11.73;8.52;;;;;;;24.91;58.87;99989.03;5113876;28;20027;-82
2021/08/02 03:48:53;;;;;;;3.45;2.42;;;;;;;25.00;57.23;99986.25;5113770;28;20034;-83
2021/08/02 03:51:32;;;;;;;4.90;3.00;;;;;;;24.80;58.01;99982.97;5113885;28;20023;-84
2021/08/02 03:54:05;;;;;;;14.45;10.77;;;;;;;24.81;57.81;99995.94;5131199;27;20073;-83
2021/08/02 03:56:33;;;;;;;13.10;10.30;;;;;;;24.79;58.38;99992.78;5114244;28;20118;-84
2021/08/02 03:59:04;;;;;;;6.80;6.20;;;;;;;24.82;58.62;99994.69;5113617;28;20027;-84
2021/08/02 04:01:39;;;;;;;7.65;3.75;;;;;;;24.80;57.60;100000.06;5113536;28;20038;-84
2021/08/02 04:04:08;;;;;;;8.77;2.17;;;;;;;24.89;56.90;99996.47;5130626;27;20031;-82
2021/08/02 04:06:37;;;;;;;4.18;2.30;;;;;;;24.80;57.37;100002.91;5114069;28;20100;-82
2021/08/02 04:09:12;;;;;;;8.20;3.65;;;;;;;24.81;58.17;100007.31;5113881;28;20109;-83
2021/08/02 04:11:42;;;;;;;3.80;2.63;;;;;;;24.75;57.37;100018.50;5113814;28;20028;-82
2021/08/02 04:14:10;;;;;;;4.47;2.30;;;;;;;24.78;57.16;100026.13;5114693;28;20496;-82
2021/08/02 04:16:37;;;;;;;9.35;2.45;;;;;;;24.89;56.40;100022.88;5130401;27;20019;-83
2021/08/02 04:19:04;;;;;;;7.15;2.42;;;;;;;24.92;56.44;100021.13;5114302;28;20051;-83
2021/08/02 04:21:32;;;;;;;2.60;2.13;;;;;;;24.96;56.10;100021.78;5096301;28;20043;-82
2021/08/02 04:24:01;;;;;;;6.25;2.20;;;;;;;25.03;54.82;100024.34;5113326;28;20381;-81
2021/08/02 04:26:29;;;;;;;4.72;2.10;;;;;;;25.13;54.21;100025.22;5112899;28;20035;-81
2021/08/02 04:28:57;;;;;;;8.02;3.53;;;;;;;25.31;54.45;100033.88;5112862;28;20502;-82
2021/08/02 04:31:27;;;;;;;2.60;1.92;;;;;;;25.53;52.96;100039.50;5113208;28;20038;-83
2021/08/02 04:33:53;;;;;;;3.05;1.98;;;;;;;25.68;52.13;100029.09;5113172;28;20031;-81
2021/08/02 04:36:21;;;;;;;3.70;1.92;;;;;;;25.84;50.90;100030.91;5113015;28;20036;-82
2021/08/02 04:38:47;;;;;;;3.30;1.85;;;;;;;26.01;49.24;100035.06;5113425;28;20046;-81
2021/08/02 04:41:18;;;;;;;2.92;1.63;;;;;;;26.25;47.89;100042.97;5113058;28;20451;-84
2021/08/02 04:43:44;;;;;;;3.85;2.13;;;;;;;26.51;47.22;100037.78;5113030;28;20509;-81
2021/08/02 04:46:11;;;;;;;5.75;2.33;;;;;;;26.75;46.88;100026.53;5113143;28;20040;-80
2021/08/02 04:48:40;;;;;;;2.65;2.10;;;;;;;26.98;45.48;100019.31;5130356;27;20457;-82
2021/08/02 04:51:06;;;;;;;4.35;1.98;;;;;;;27.32;44.20;100032.41;5130214;27;20036;-84
2021/08/02 04:53:31;;;;;;;4.07;2.20;;;;;;;27.65;44.00;100035.28;5113073;28;20400;-80
2021/08/02 04:56:02;;;;;;;6.97;2.30;;;;;;;27.92;44.11;100037.22;5112727;28;20453;-81
2021/08/02 04:58:28;;;;;;;4.40;2.25;;;;;;;28.18;43.42;100046.88;5112965;28;20023;-83
2021/08/02 05:00:59;;;;;;;4.20;1.90;;;;;;;28.51;42.22;100048.88;5113198;28;20378;-83
2021/08/02 05:03:25;;;;;;;3.65;1.90;;;;;;;28.69;42.01;100045.81;5112675;28;20027;-83
2021/08/02 05:05:56;;;;;;;5.75;3.15;;;;;;;28.82;42.00;100053.34;5112664;28;20084;-83
2021/08/02 05:08:27;;;;;;;3.05;1.70;;;;;;;29.08;41.25;100059.31;5112577;28;20035;-84
2021/08/02 05:10:55;;;;;;;3.10;1.75;;;;;;;29.23;40.81;100065.81;5113044;28;20035;-81
2021/08/02 05:13:24;;;;;;;3.45;1.70;;;;;;;29.45;40.51;100071.13;5113150;28;20118;-83
2021/08/02 05:15:50;;;;;;;7.10;3.22;;;;;;;29.80;38.92;100062.59;5112571;28;20061;-82
2021/08/02 05:18:18;;;;;;;6.55;3.97;;;;;;;30.00;38.28;100058.97;5112275;28;20044;-81
2021/08/02 05:20:44;;;;;;;6.43;3.35;;;;;;;30.18;38.50;100058.69;5112557;28;20027;-84
2021/08/02 05:23:12;;;;;;;8.10;2.72;;;;;;;30.47;37.04;100062.72;5129555;28;20077;-80
2021/08/02 05:25:40;;;;;;;6.10;2.40;;;;;;;30.66;37.72;100066.84;5112426;28;20023;-84
2021/08/02 05:28:06;;;;;;;5.82;2.63;;;;;;;30.78;36.07;100057.06;5112536;28;20023;-81
2021/08/02 05:30:32;;;;;;;4.07;2.30;;;;;;;31.11;36.47;100058.72;5113008;28;20169;-82
2021/08/02 05:33:00;;;;;;;5.25;2.53;;;;;;;31.37;33.85;100058.69;5112401;28;20481;-82
2021/08/02 05:35:31;;;;;;;5.68;2.20;;;;;;;31.52;33.55;100052.78;5112953;28;20069;-81
2021/08/02 05:37:59;;;;;;;3.08;2.10;;;;;;;31.97;32.46;100061.75;5114933;28;20576;-82
2021/08/02 05:40:28;;;;;;;6.63;2.05;;;;;;;32.14;32.29;100056.88;5116384;28;20023;-84
2021/08/02 05:43:00;;;;;;;17.65;8.52;;;;;;;32.17;33.70;100061.56;5116272;28;20031;-80
2021/08/02 05:45:29;;;;;;;17.77;9.80;;;;;;;32.19;33.33;100075.47;5116816;28;20485;-82
2021/08/02 05:48:00;;;;;;;15.52;9.05;;;;;;;32.23;32.05;100088.31;5116062;28;20034;-82
2021/08/02 05:50:29;;;;;;;16.25;9.65;;;;;;;32.54;32.22;100080.88;5116066;28;20028;-81
2021/08/02 05:52:57;;;;;;;12.75;5.05;;;;;;;32.32;31.44;100084.41;5116422;28;20055;-81
2021/08/02 05:55:22;;;;;;;6.10;2.88;;;;;;;32.30;31.89;100081.28;5116452;28;20058;-76
2021/08/02 05:57:48;;;;;;;3.75;2.17;;;;;;;32.47;31.51;100075.59;5116065;28;20063;-78
2021/08/02 06:00:14;;;;;;;3.42;1.85;;;;;;;32.37;31.28;100077.94;5116041;28;20023;-77
2021/08/02 06:02:43;;;;;;;3.50;1.95;;;;;;;32.18;32.12;100079.66;5116052;28;20038;-77
2021/08/02 06:05:09;;;;;;;6.22;1.45;;;;;;;32.19;31.26;100087.75;5116524;28;20084;-77
2021/08/02 06:07:42;;;;;;;4.85;1.85;;;;;;;31.13;33.56;100056.13;5115771;28;20470;-77
2021/08/02 06:10:09;;;;;;;3.67;1.40;;;;;;;32.28;31.40;100089.63;5115736;28;20043;-77
2021/08/02 06:12:47;;;;;;;4.55;1.65;;;;;;;32.75;31.20;100088.00;5117465;28;20028;-77
2021/08/02 06:15:15;;;;;;;4.07;1.80;;;;;;;32.43;31.33;100089.47;5115666;28;20147;-77
2021/08/02 06:17:43;;;;;;;4.93;2.15;;;;;;;32.01;32.27;100093.94;5115547;28;20058;-77
2021/08/02 06:20:12;;;;;;;4.95;1.92;;;;;;;31.76;32.44;100084.88;5115588;28;20027;-77
2021/08/02 06:22:38;;;;;;;5.13;1.70;;;;;;;31.64;32.11;100094.72;5115779;28;20032;-76
2021/08/02 06:25:07;;;;;;;5.97;1.70;;;;;;;31.57;32.25;100100.94;5132950;27;20100;-76
2021/08/02 06:27:35;;;;;;;5.40;1.73;;;;;;;31.84;31.91;100093.03;5132449;27;20027;-76
2021/08/02 06:30:04;;;;;;;2.33;2.08;;;;;;;31.07;32.95;100092.63;5115259;28;20066;-77
2021/08/02 06:32:36;;;;;;;3.95;1.77;;;;;;;31.23;32.14;100097.75;5116564;28;20031;-76
2021/08/02 06:35:04;;;;;;;5.38;1.80;;;;;;;31.92;31.63;100097.03;5115794;28;20180;-76
2021/08/02 06:37:32;;;;;;;5.60;2.15;;;;;;;32.44;31.03;100091.84;5116734;28;20027;-76
2021/08/02 06:39:58;;;;;;;6.03;2.58;;;;;;;31.76;32.01;100098.47;5114960;28;20016;-76
2021/08/02 06:42:29;;;;;;;3.53;2.28;;;;;;;32.10;32.27;100107.34;5115357;28;20053;-77
2021/08/02 06:45:00;;;;;;;5.57;2.90;;;;;;;31.74;32.95;100098.16;5115094;28;20031;-77
2021/08/02 06:47:30;;;;;;;4.97;2.70;;;;;;;32.06;32.26;100104.69;5114995;28;20031;-77
2021/08/02 06:49:59;;;;;;;4.80;2.67;;;;;;;32.37;31.77;100108.81;5115768;28;20040;-77
2021/08/02 06:52:27;;;;;;;4.20;1.95;;;;;;;32.61;30.99;100103.41;5115290;28;20031;-77
2021/08/02 06:54:53;;;;;;;6.32;3.00;;;;;;;33.10;30.59;100101.22;5115120;28;20432;-77
2021/08/02 06:57:24;;;;;;;3.15;2.30;;;;;;;33.22;30.54;100114.31;5115150;28;20028;-77
2021/08/02 06:59:59;;;;;;;3.28;2.00;;;;;;;33.30;30.09;100124.03;5115306;28;20207;-76
2021/08/02 07:02:29;;;;;;;7.95;2.50;;;;;;;34.29;28.86;100129.47;5114722;28;20031;-77
2021/08/02 07:05:00;;;;;;;3.00;2.25;;;;;;;34.70;29.07;100123.06;5114721;28;20055;-77
2021/08/02 07:07:28;;;;;;;5.88;3.10;;;;;;;34.38;28.84;100119.75;5114629;28;20039;-77
2021/08/02 07:09:53;;;;;;;6.68;2.60;;;;;;;33.87;29.71;100119.84;5115788;28;20047;-77
2021/08/02 07:12:24;;;;;;;6.13;2.88;;;;;;;33.74;29.96;100119.59;5114506;28;20212;-77
2021/08/02 07:14:52;;;;;;;6.97;3.35;;;;;;;33.55;30.20;100118.56;5114546;28;20023;-77
2021/08/02 07:17:18;;;;;;;3.72;2.50;;;;;;;33.95;30.08;100116.47;5114511;28;20409;-77
2021/08/02 07:19:49;;;;;;;7.63;2.70;;;;;;;34.77;28.39;100118.81;5114390;28;20027;-77
2021/08/02 07:22:18;;;;;;;5.32;2.58;;;;;;;35.17;27.81;100123.06;5114601;28;20040;-77
2021/08/02 07:24:46;;;;;;;5.38;2.70;;;;;;;35.46;27.01;100123.66;5114128;28;20042;-77
2021/08/02 07:27:17;;;;;;;7.97;3.17;;;;;;;35.68;26.84;100130.03;5114179;28;20032;-77
2021/08/02 07:29:48;;;;;;;11.70;3.60;;;;;;;34.26;29.00;100130.56;5114028;28;20019;-77
2021/08/02 07:32:17;;;;;;;6.22;3.30;;;;;;;34.81;28.60;100128.78;5114197;28;20580;-77
2021/08/02 07:34:48;;;;;;;5.82;2.63;;;;;;;34.58;28.74;100127.31;5131939;27;20058;-77
2021/08/02 07:37:14;;;;;;;5.55;3.40;;;;;;;34.65;28.48;100139.09;5113923;28;20023;-77
2021/08/02 07:39:44;;;;;;;10.18;3.45;;;;;;;34.00;28.88;100141.63;5114080;28;20038;-77
2021/08/02 07:42:12;;;;;;;6.40;2.65;;;;;;;34.02;28.78;100157.09;5115153;28;20031;-77
2021/08/02 07:44:40;;;;;;;12.68;2.95;;;;;;;35.02;27.91;100166.78;5114418;28;20081;-77
2021/08/02 07:47:10;;;;;;;8.93;3.00;;;;;;;35.71;27.63;100156.34;5114091;28;20031;-77
2021/08/02 07:49:39;;;;;;;4.90;2.42;;;;;;;35.88;27.26;100154.84;5114576;27;20032;-77
2021/08/02 07:52:07;;;;;;;9.43;4.28;;;;;;;36.32;26.44;100158.63;5113951;28;20031;-77
2021/08/02 07:54:36;;;;;;;5.00;3.03;;;;;;;36.84;26.53;100162.53;5114211;28;20032;-77
2021/08/02 07:57:04;;;;;;;5.03;3.00;;;;;;;36.45;26.08;100164.59;5113696;28;20039;-76
2021/08/02 07:59:35;;;;;;;5.50;2.88;;;;;;;36.38;26.36;100168.06;5130427;27;20024;-76
2021/08/02 08:02:23;;;;;;;7.60;3.00;;;;;;;35.10;27.42;100167.00;5114222;28;20031;-77
2021/08/02 08:04:50;;;;;;;5.50;2.53;;;;;;;34.61;28.86;100167.47;5113679;28;20035;-77
2021/08/02 08:07:21;;;;;;;7.38;2.72;;;;;;;34.80;28.06;100170.56;5115036;28;20042;-77
2021/08/02 08:09:46;;;;;;;4.97;2.70;;;;;;;35.02;27.80;100166.78;5113932;28;20027;-77
2021/08/02 08:12:17;;;;;;;6.35;2.90;;;;;;;35.73;26.38;100166.03;5113458;28;20426;-77
2021/08/02 08:14:45;;;;;;;5.60;2.17;;;;;;;36.25;25.68;100175.84;5113753;28;20132;-77
2021/08/02 08:17:11;;;;;;;5.65;2.40;;;;;;;35.77;26.63;100165.75;5130822;27;20047;-77
2021/08/02 08:19:41;;;;;;;6.88;2.40;;;;;;;36.09;25.90;100181.28;5113199;28;20545;-77
2021/08/02 08:22:12;;;;;;;3.58;1.70;;;;;;;36.57;25.55;100191.31;5113328;28;20497;-78
2021/08/02 08:24:40;;;;;;;3.95;2.40;;;;;;;36.82;25.19;100206.56;5113124;28;20175;-78
2021/08/02 08:27:05;;;;;;;3.40;2.75;;;;;;;36.25;26.12;100196.91;5113567;28;20104;-78
2021/08/02 08:29:36;;;;;;;2.53;2.10;;;;;;;35.08;27.27;100193.56;5113110;28;20032;-77
2021/08/02 08:32:04;;;;;;;2.72;2.00;;;;;;;33.28;30.97;100180.63;5113080;28;20088;-78
2021/08/02 08:34:32;;;;;;;4.55;2.45;;;;;;;32.58;32.48;100179.31;5113049;28;20125;-77
2021/08/02 08:37:03;;;;;;;5.18;2.08;;;;;;;33.07;31.53;100182.94;5130727;27;20093;-77
2021/08/02 08:39:31;;;;;;;6.38;2.20;;;;;;;33.28;31.91;100192.16;5113451;28;20061;-77
2021/08/02 08:42:02;;;;;;;7.55;2.60;;;;;;;32.80;33.22;100199.59;5113656;28;20035;-77
2021/08/02 08:44:34;;;;;;;4.78;2.50;;;;;;;33.09;32.56;100197.63;5130878;27;20439;-77
2021/08/02 08:47:02;;;;;;;6.43;2.43;;;;;;;32.30;34.17;100197.22;5113394;28;20031;-76
2021/08/02 08:49:30;;;;;;;6.97;2.60;;;;;;;32.66;34.49;100197.69;5112822;28;20118;-77
2021/08/02 08:52:03;;;;;;;5.88;2.38;;;;;;;32.45;34.88;100204.91;5112973;28;20542;-77
2021/08/02 08:54:34;;;;;;;8.35;2.40;;;;;;;31.99;35.97;100203.00;5113716;28;20056;-77
2021/08/02 08:56:59;;;;;;;9.63;2.72;;;;;;;30.62;38.74;100200.44;5109945;28;20032;-77
2021/08/02 08:59:25;;;;;;;6.32;2.60;;;;;;;30.37;39.40;100178.97;5112703;28;20367;-76
2021/08/02 09:02:05;;;;;;;5.50;2.50;;;;;;;31.74;35.88;100184.47;5112710;28;20028;-77
2021/08/02 09:04:33;;;;;;;4.88;2.03;;;;;;;32.36;35.42;100171.34;5109757;28;20035;-77
2021/08/02 09:07:00;;;;;;;8.32;2.88;;;;;;;33.21;34.29;100189.81;5113505;28;20375;-76
2021/08/02 09:09:33;;;;;;;6.20;2.25;;;;;;;33.00;33.05;100189.22;5112586;28;20497;-76
2021/08/02 09:12:25;;;;;;;7.45;2.53;;;;;;;32.38;35.55;100173.72;5130840;27;20443;-77
2021/08/02 09:15:00;;;;;;;4.13;2.00;;;;;;;32.67;35.70;100161.03;5112295;28;20486;-77
2021/08/02 09:17:37;;;;;;;8.25;2.67;;;;;;;33.67;33.59;100163.41;5116825;28;20116;-77
2021/08/02 09:20:20;;;;;;;6.25;2.75;;;;;;;33.37;34.50;100166.75;5116761;28;20034;-77
2021/08/02 09:22:50;;;;;;;9.02;2.22;;;;;;;33.11;34.93;100161.22;5133930;27;20038;-78
2021/08/02 09:25:21;;;;;;;4.28;2.38;;;;;;;32.02;36.76;100150.19;5118211;28;20027;-77
2021/08/02 09:27:51;;;;;;;3.10;2.25;;;;;;;33.59;33.72;100160.25;5134372;27;20562;-76
2021/08/02 09:30:23;;;;;;;6.95;2.30;;;;;;;33.84;34.05;100169.19;5116667;28;20023;-77
2021/08/02 09:33:05;;;;;;;7.63;2.08;;;;;;;33.60;34.03;100155.25;5118280;28;20028;-78
2021/08/02 09:35:42;;;;;;;5.93;2.47;;;;;;;33.50;34.12;100163.38;5117674;28;20099;-77
2021/08/02 09:38:14;;;;;;;8.10;2.35;;;;;;;34.02;33.17;100162.88;5118156;28;20036;-77
2021/08/02 09:40:45;;;;;;;5.22;2.35;;;;;;;33.51;33.30;100169.97;5117887;28;20031;-77
2021/08/02 09:43:13;;;;;;;5.68;2.83;;;;;;;33.78;33.62;100159.75;5116343;28;20130;-78
2021/08/02 09:45:44;;;;;;;4.50;2.00;;;;;;;34.15;32.99;100153.69;5132876;27;20351;-78
2021/08/02 09:48:18;;;;;;;5.80;2.38;;;;;;;33.91;33.47;100150.53;5116601;28;20031;-77
2021/08/02 09:50:49;;;;;;;5.25;2.30;;;;;;;34.21;32.63;100150.78;5115896;28;20031;-78
2021/08/02 09:53:21;;;;;;;6.60;2.30;;;;;;;34.20;32.89;100155.78;5116150;27;20035;-77
2021/08/02 09:55:48;;;;;;;7.57;2.40;;;;;;;35.03;31.75;100159.69;5116051;28;20027;-78
2021/08/02 09:58:20;;;;;;;4.85;3.10;;;;;;;34.23;33.52;100168.34;5116636;27;20023;-77
2021/08/02 10:00:48;;;;;;;3.17;1.75;;;;;;;33.98;33.53;100159.47;5116290;28;20023;-78
2021/08/02 10:03:15;;;;;;;3.67;1.75;;;;;;;33.90;33.78;100167.06;5115943;28;20031;-78
2021/08/02 10:05:42;;;;;;;3.97;2.10;;;;;;;34.02;33.73;100156.31;5115877;28;20474;-78
2021/08/02 10:08:13;;;;;;;13.18;2.58;;;;;;;32.88;35.80;100144.34;5117267;28;20466;-77
2021/08/02 10:10:39;;;;;;;7.32;2.20;;;;;;;33.57;34.88;100156.34;5115794;28;20128;-78
2021/08/02 10:13:07;;;;;;;4.63;1.98;;;;;;;33.52;34.21;100157.13;5116400;28;20378;-78
2021/08/02 10:15:40;;;;;;;4.43;2.15;;;;;;;34.04;33.13;100159.47;5117333;28;20102;-77
2021/08/02 10:18:08;;;;;;;5.00;1.80;;;;;;;33.80;33.63;100151.34;5098422;28;20061;-78
2021/08/02 10:20:37;;;;;;;4.63;1.85;;;;;;;34.56;32.51;100161.72;5115742;28;20060;-78
2021/08/02 10:23:06;;;;;;;6.07;2.20;;;;;;;33.60;33.45;100144.50;5132108;27;20035;-77
2021/08/02 10:25:32;;;;;;;4.35;1.90;;;;;;;34.54;31.44;100109.47;5115384;28;20053;-77
2021/08/02 10:28:07;;;;;;;6.43;1.95;;;;;;;34.05;32.06;100138.75;5116093;28;20035;-77
2021/08/02 10:30:32;;;;;;;5.80;1.83;;;;;;;33.98;31.21;100145.03;5115437;28;20473;-77
2021/08/02 10:33:01;;;;;;;4.60;1.60;;;;;;;33.96;31.06;100146.88;5115709;28;20049;-77
2021/08/02 10:35:36;;;;;;;6.72;2.53;;;;;;;34.14;30.29;100152.09;5115582;28;20114;-77
2021/08/02 10:38:07;;;;;;;6.25;1.83;;;;;;;34.42;30.00;100152.03;5115986;28;20354;-77
2021/08/02 10:40:47;;;;;;;3.88;2.75;;;;;;;34.30;30.19;100139.72;5132677;27;20030;-77
2021/08/02 10:43:34;;;;;;;5.00;2.13;;;;;;;33.68;30.41;100152.66;5115779;28;20408;-77
2021/08/02 10:46:16;;;;;;;5.57;2.20;;;;;;;33.72;29.96;100153.16;5116328;28;20020;-77
2021/08/02 10:48:45;;;;;;;2.72;1.88;;;;;;;33.75;30.23;100155.00;5116491;28;20027;-77
2021/08/02 10:51:13;;;;;;;7.47;1.75;;;;;;;34.11;28.77;100162.59;5115065;28;20031;-76
2021/08/02 10:53:40;;;;;;;4.65;1.60;;;;;;;33.68;29.00;100162.09;5115428;28;20034;-77
2021/08/02 10:56:09;;;;;;;17.20;2.88;;;;;;;33.54;27.83;100168.91;5115093;28;20485;-77
2021/08/02 10:58:42;;;;;;;2.88;1.88;;;;;;;32.79;28.35;100160.56;5115374;28;20042;-77
2021/08/02 11:01:16;;;;;;;6.15;1.70;;;;;;;33.48;27.32;100157.38;5116440;28;20019;-77
2021/08/02 11:03:45;;;;;;;3.15;1.77;;;;;;;32.76;27.40;100172.31;5131928;27;20084;-77
2021/08/02 11:06:18;;;;;;;2.63;1.48;;;;;;;32.49;28.43;100170.91;5114990;28;20114;-77
2021/08/02 11:08:49;;;;;;;1.67;1.50;;;;;;;33.21;27.04;100163.84;5115857;28;20027;-76
2021/08/02 11:11:29;;;;;;;4.55;1.60;;;;;;;32.92;25.71;100163.00;5132366;27;20465;-77
2021/08/02 11:14:09;;;;;;;6.60;2.03;;;;;;;33.69;25.00;100160.78;5115721;28;20030;-76
2021/08/02 11:16:41;;;;;;;4.05;1.70;;;;;;;33.73;24.59;100158.44;5114537;28;20027;-76
2021/08/02 11:19:31;;;;;;;3.03;1.50;;;;;;;34.15;24.19;100165.22;5113993;28;20083;-76
2021/08/02 11:22:02;;;;;;;2.50;1.40;;;;;;;34.23;24.93;100165.47;5132098;27;20030;-76
2021/08/02 11:24:36;;;;;;;2.00;1.27;;;;;;;34.48;24.75;100170.16;5115204;28;20107;-76
2021/08/02 11:27:08;;;;;;;2.15;1.80;;;;;;;34.11;24.29;100153.94;5114010;28;20090;-77
2021/08/02 11:29:39;;;;;;;9.38;1.55;;;;;;;33.84;24.59;100146.88;5115922;28;20158;-77
2021/08/02 11:32:10;;;;;;;2.50;1.52;;;;;;;33.99;26.21;100148.72;5114139;28;20030;-76
2021/08/02 11:34:43;;;;;;;2.78;1.52;;;;;;;34.29;26.64;100158.34;5130418;27;20111;-76
2021/08/02 11:37:14;;;;;;;2.38;1.55;;;;;;;34.09;26.80;100161.53;5114048;28;20031;-78
2021/08/02 11:39:47;;;;;;;3.75;1.77;;;;;;;34.20;27.47;100157.84;5131154;27;20492;-75
2021/08/02 11:42:19;;;;;;;4.20;1.73;;;;;;;34.54;26.17;100162.25;5131249;27;20466;-76
2021/08/02 11:44:56;;;;;;;5.35;1.55;;;;;;;34.32;25.85;100160.19;5115516;28;20028;-75